Time;durP1;ratioP1;P1;durP2;ratioP2;P2;SDS_P1;SDS_P2;PMS_P1;PMS_P2;Temp;Humidity;BMP_temperature;BMP_pressure;BME280_temperature;BME280_humidity;BME280_pressure;Samples;Min_cycle;Max_cycle;Signal;HPM_P1;HPM_P2
2023/08/12 00:01:24;;;;;;;8.65;4.65;;;23.60;82.30;;;;;;5067296;28;20025;-70
2023/08/12 00:03:51;;;;;;;6.95;5.35;;;23.60;82.40;;;;;;5061136;28;20021;-70
2023/08/12 00:06:16;;;;;;;9.85;5.30;;;23.50;82.50;;;;;;5058465;28;20035;-71
2023/08/12 00:08:42;;;;;;;8.13;4.65;;;23.50;82.70;;;;;;5059795;28;20020;-71
2023/08/12 00:11:08;;;;;;;6.43;4.60;;;23.40;82.90;;;;;;5051747;28;20483;-71
2023/08/12 00:13:33;;;;;;;7.60;4.40;;;23.30;83.30;;;;;;5059502;28;20021;-72
2023/08/12 00:15:59;;;;;;;8.05;4.80;;;23.30;83.20;;;;;;5057047;28;20075;-71
2023/08/12 00:18:25;;;;;;;5.65;3.85;;;23.30;83.30;;;;;;5058202;28;20031;-71
2023/08/12 00:20:51;;;;;;;5.72;3.85;;;23.30;83.30;;;;;;5062843;28;20033;-71
2023/08/12 00:23:16;;;;;;;9.45;4.75;;;23.30;83.20;;;;;;5057001;28;20028;-71
2023/08/12 00:25:42;;;;;;;7.45;4.32;;;23.30;83.10;;;;;;5054711;28;20021;-72
2023/08/12 00:28:07;;;;;;;8.32;5.13;;;23.30;83.20;;;;;;5066198;28;20024;-71
2023/08/12 00:30:33;;;;;;;5.70;4.15;;;23.20;83.40;;;;;;5049711;28;20017;-71
2023/08/12 00:32:59;;;;;;;6.32;4.05;;;23.20;83.90;;;;;;5055169;28;20037;-71
2023/08/12 00:35:24;;;;;;;8.20;5.63;;;23.20;84.00;;;;;;5056499;28;20036;-71
2023/08/12 00:37:50;;;;;;;7.20;4.55;;;23.10;84.30;;;;;;5068283;28;20558;-71
2023/08/12 00:40:15;;;;;;;6.30;4.38;;;23.10;84.40;;;;;;5058211;28;20029;-69
2023/08/12 00:42:41;;;;;;;6.30;4.07;;;23.10;84.50;;;;;;5060253;28;20248;-70
2023/08/12 00:45:12;;;;;;;6.07;4.22;;;23.00;84.70;;;;;;5065909;28;20498;-71
2023/08/12 00:47:39;;;;;;;10.23;5.72;;;23.10;84.80;;;;;;5061394;28;20024;-72
2023/08/12 00:50:06;;;;;;;6.95;4.60;;;23.00;85.20;;;;;;5067451;28;20078;-73
2023/08/12 00:52:32;;;;;;;7.13;3.58;;;23.00;85.50;;;;;;5063448;28;20040;-72
2023/08/12 00:54:58;;;;;;;6.15;3.63;;;23.00;85.40;;;;;;5062988;28;20021;-72
2023/08/12 00:57:24;;;;;;;5.53;3.50;;;23.00;85.30;;;;;;5060071;28;20009;-72
2023/08/12 00:59:50;;;;;;;5.20;4.03;;;23.10;85.10;;;;;;5058772;28;20029;-72
2023/08/12 01:02:15;;;;;;;6.57;4.18;;;23.10;84.90;;;;;;5059125;28;20017;-72
2023/08/12 01:04:41;;;;;;;6.55;4.43;;;23.20;84.80;;;;;;5063808;28;20028;-71
2023/08/12 01:07:06;;;;;;;5.57;3.90;;;23.20;84.60;;;;;;5061649;28;20025;-71
2023/08/12 01:09:32;;;;;;;5.15;3.78;;;23.20;84.70;;;;;;5062501;28;20020;-71
2023/08/12 01:12:04;;;;;;;7.50;4.57;;;23.20;84.60;;;;;;5060579;28;20059;-72
2023/08/12 01:14:29;;;;;;;;;;;23.20;84.90;;;;;;5059331;28;20020;-72
2023/08/12 01:17:00;;;;;;;5.60;3.80;;;23.20;84.70;;;;;;5059266;28;19908;-70
2023/08/12 01:19:37;;;;;;;7.07;4.30;;;23.20;84.80;;;;;;5063689;28;20029;-70
2023/08/12 01:22:06;;;;;;;6.82;3.78;;;23.20;84.70;;;;;;5060903;28;20027;-70
2023/08/12 01:24:38;;;;;;;8.35;5.55;;;23.20;84.70;;;;;;5065647;28;20024;-70
2023/08/12 01:27:05;;;;;;;6.50;5.03;;;23.20;85.00;;;;;;5064053;28;20032;-70
2023/08/12 01:29:33;;;;;;;7.28;5.10;;;23.20;85.30;;;;;;5068173;28;20040;-70
2023/08/12 01:32:15;;;;;;;8.68;4.57;;;23.20;85.50;;;;;;5058389;28;20418;-70
2023/08/12 01:34:54;;;;;;;7.15;4.60;;;23.10;85.60;;;;;;5069479;28;20086;-71
2023/08/12 01:37:31;;;;;;;6.18;4.45;;;23.10;85.70;;;;;;5063717;28;20028;-71
2023/08/12 01:40:00;;;;;;;7.63;5.20;;;23.10;85.70;;;;;;5062684;28;20298;-70
2023/08/12 01:42:28;;;;;;;7.60;4.68;;;23.10;85.90;;;;;;5060700;28;20055;-71
2023/08/12 01:44:54;;;;;;;8.02;5.00;;;23.10;85.90;;;;;;5066292;28;20023;-71
2023/08/12 01:47:20;;;;;;;8.27;5.03;;;23.10;85.80;;;;;;5063837;28;20017;-71
2023/08/12 01:49:45;;;;;;;7.15;5.50;;;23.20;85.80;;;;;;5069376;28;20533;-71
2023/08/12 01:52:11;;;;;;;9.55;5.82;;;23.20;85.80;;;;;;5067702;28;20040;-71
2023/08/12 01:54:37;;;;;;;10.85;6.80;;;23.20;85.90;;;;;;5070674;28;20066;-71
2023/08/12 01:57:05;;;;;;;10.30;6.90;;;23.10;86.30;;;;;;5064451;28;20035;-70
2023/08/12 01:59:31;;;;;;;7.95;6.50;;;23.10;86.60;;;;;;5062024;28;20016;-71
2023/08/12 02:01:57;;;;;;;10.80;7.60;;;23.00;86.90;;;;;;5064024;28;20158;-71
2023/08/12 02:04:23;;;;;;;11.07;7.15;;;23.00;87.30;;;;;;5059356;28;20104;-71
2023/08/12 02:06:49;;;;;;;8.10;6.68;;;23.00;87.50;;;;;;5059869;28;20395;-71
2023/08/12 02:09:15;;;;;;;10.52;6.32;;;22.90;87.80;;;;;;5054562;28;20029;-71
2023/08/12 02:11:41;;;;;;;8.77;7.05;;;22.90;87.80;;;;;;5064145;28;20035;-71
2023/08/12 02:14:06;;;;;;;9.18;6.55;;;22.90;87.90;;;;;;5055180;28;20079;-72
2023/08/12 02:16:32;;;;;;;8.75;6.25;;;22.90;88.00;;;;;;5057236;28;20384;-71
2023/08/12 02:18:57;;;;;;;10.40;7.80;;;22.90;87.90;;;;;;5064774;28;20028;-71
2023/08/12 02:21:23;;;;;;;8.60;7.55;;;22.90;87.90;;;;;;5062396;28;20029;-71
2023/08/12 02:23:48;;;;;;;10.88;8.15;;;23.00;88.20;;;;;;5065027;28;20028;-71
2023/08/12 02:26:14;;;;;;;8.60;6.18;;;23.00;88.40;;;;;;5070271;28;20021;-70
2023/08/12 02:28:40;;;;;;;10.95;7.28;;;23.00;88.40;;;;;;5070648;28;20036;-71
2023/08/12 02:31:05;;;;;;;9.20;7.38;;;22.90;88.80;;;;;;5066138;28;20226;-72
2023/08/12 02:33:31;;;;;;;13.48;9.50;;;22.90;88.90;;;;;;5055755;28;20021;-72
2023/08/12 02:35:56;;;;;;;12.75;8.52;;;22.80;89.80;;;;;;5053486;28;20597;-71
2023/08/12 02:38:22;;;;;;;10.05;7.80;;;22.80;90.00;;;;;;5065600;28;20079;-72
2023/08/12 02:40:49;;;;;;;15.15;10.02;;;22.80;90.00;;;;;;5052171;28;20027;-71
2023/08/12 02:43:15;;;;;;;10.88;7.97;;;22.80;90.10;;;;;;5061097;28;20039;-71
2023/08/12 02:45:40;;;;;;;9.30;6.97;;;22.80;90.10;;;;;;5065045;28;20021;-71
2023/08/12 02:48:06;;;;;;;11.52;8.65;;;22.80;90.00;;;;;;5064871;28;20034;-71
2023/08/12 02:50:32;;;;;;;14.70;9.73;;;22.80;90.00;;;;;;5065953;28;20052;-71
2023/08/12 02:52:57;;;;;;;10.60;9.35;;;22.80;90.00;;;;;;5059077;28;20029;-70
2023/08/12 02:55:23;;;;;;;11.32;8.80;;;22.80;90.10;;;;;;5063148;28;20131;-71
2023/08/12 02:57:48;;;;;;;11.65;9.45;;;22.70;90.10;;;;;;5064394;28;20032;-71
2023/08/12 03:00:14;;;;;;;13.00;10.18;;;22.70;90.20;;;;;;5061076;28;20033;-69
2023/08/12 03:02:43;;;;;;;11.75;8.43;;;22.70;90.40;;;;;;5058008;28;20016;-70
2023/08/12 03:05:09;;;;;;;10.25;8.15;;;22.70;90.30;;;;;;5062550;28;20020;-71
2023/08/12 03:07:34;;;;;;;10.10;8.55;;;22.80;90.30;;;;;;5059132;28;20375;-71
2023/08/12 03:10:00;;;;;;;9.80;7.38;;;22.80;90.20;;;;;;5066646;28;20512;-71
2023/08/12 03:12:26;;;;;;;11.45;9.98;;;22.80;90.20;;;;;;5067696;28;21263;-70
2023/08/12 03:14:51;;;;;;;12.52;10.27;;;22.70;90.40;;;;;;5061248;28;20029;-70
2023/08/12 03:17:17;;;;;;;17.75;11.05;;;22.70;90.50;;;;;;5065748;28;20024;-71
2023/08/12 03:19:43;;;;;;;11.15;9.10;;;22.70;90.70;;;;;;5058508;28;20078;-70
2023/08/12 03:22:08;;;;;;;12.00;9.77;;;22.60;90.70;;;;;;5062588;28;20383;-70
2023/08/12 03:24:34;;;;;;;11.45;9.70;;;22.60;90.80;;;;;;5061410;28;20020;-70
2023/08/12 03:27:00;;;;;;;11.75;9.20;;;22.60;90.80;;;;;;5062201;28;20437;-70
2023/08/12 03:29:25;;;;;;;9.63;7.95;;;22.60;90.80;;;;;;5060938;28;20021;-70
2023/08/12 03:31:51;;;;;;;13.38;9.63;;;22.60;90.70;;;;;;5066213;28;20080;-70
2023/08/12 03:34:16;;;;;;;12.10;9.07;;;22.70;90.70;;;;;;5059793;28;20047;-70
2023/08/12 03:36:42;;;;;;;13.98;10.00;;;22.60;90.70;;;;;;5063650;28;20029;-70
2023/08/12 03:39:08;;;;;;;11.25;8.50;;;22.70;90.80;;;;;;5064782;28;20388;-70
2023/08/12 03:41:33;;;;;;;14.27;11.15;;;22.70;90.70;;;;;;5063417;28;20445;-71
2023/08/12 03:43:59;;;;;;;11.68;9.30;;;22.70;90.90;;;;;;5061367;28;20038;-71
2023/08/12 03:46:25;;;;;;;12.82;10.13;;;22.60;91.10;;;;;;5063111;28;20020;-72
2023/08/12 03:48:50;;;;;;;13.63;9.95;;;22.60;91.40;;;;;;5059118;28;20441;-72
2023/08/12 03:51:16;;;;;;;14.18;10.57;;;22.60;91.00;;;;;;5067766;28;20103;-73
2023/08/12 03:53:42;;;;;;;13.40;10.45;;;22.60;91.00;;;;;;5058275;28;20111;-74
2023/08/12 03:56:07;;;;;;;11.82;10.50;;;22.60;91.10;;;;;;5060388;28;20096;-72
2023/08/12 03:58:33;;;;;;;14.10;11.40;;;22.60;91.20;;;;;;5065627;28;20027;-72
2023/08/12 04:00:58;;;;;;;12.55;10.30;;;22.60;91.30;;;;;;5062648;28;20510;-72
2023/08/12 04:03:24;;;;;;;12.88;9.32;;;22.60;91.30;;;;;;5064747;28;20108;-71
2023/08/12 04:05:52;;;;;;;11.75;9.63;;;22.60;91.40;;;;;;5061449;28;20020;-71
2023/08/12 04:08:19;;;;;;;9.98;8.05;;;22.60;91.30;;;;;;5061651;28;20031;-72
2023/08/12 04:10:47;;;;;;;9.43;7.82;;;22.70;91.20;;;;;;5065073;28;20028;-71
2023/08/12 04:13:13;;;;;;;9.75;8.10;;;22.60;91.10;;;;;;5051568;28;20097;-71
2023/08/12 04:15:39;;;;;;;9.38;8.02;;;22.70;91.00;;;;;;5063062;28;20360;-71
2023/08/12 04:18:05;;;;;;;9.77;7.70;;;22.70;91.00;;;;;;5061719;28;20112;-71
2023/08/12 04:20:30;;;;;;;11.55;9.25;;;22.70;91.00;;;;;;5049815;28;20032;-71
2023/08/12 04:22:56;;;;;;;12.20;8.60;;;22.70;91.10;;;;;;5053559;28;20061;-72
2023/08/12 04:25:22;;;;;;;14.63;12.00;;;22.60;91.10;;;;;;5068322;28;20025;-72
2023/08/12 04:27:49;;;;;;;13.07;10.60;;;22.60;91.40;;;;;;5052851;28;20615;-72
2023/08/12 04:30:16;;;;;;;13.57;10.68;;;22.60;91.50;;;;;;5058423;28;20090;-72
2023/08/12 04:32:41;;;;;;;13.10;9.52;;;22.50;91.50;;;;;;5055162;28;20032;-72
2023/08/12 04:35:08;;;;;;;10.30;7.93;;;22.60;91.80;;;;;;5062115;28;20039;-72
2023/08/12 04:37:33;;;;;;;13.90;10.95;;;22.50;91.40;;;;;;5055358;28;20162;-72
2023/08/12 04:39:59;;;;;;;12.88;10.48;;;22.50;91.70;;;;;;5063528;28;20107;-72
2023/08/12 04:42:24;;;;;;;16.38;13.30;;;22.50;91.70;;;;;;5068090;28;20082;-72
2023/08/12 04:44:50;;;;;;;14.90;11.27;;;22.40;92.00;;;;;;5065454;28;20020;-71
2023/08/12 04:47:16;;;;;;;12.70;10.65;;;22.30;92.10;;;;;;5064480;28;20498;-73
2023/08/12 04:49:41;;;;;;;12.02;9.93;;;22.30;92.40;;;;;;5058191;28;20510;-71
2023/08/12 04:52:07;;;;;;;13.55;10.50;;;22.30;92.30;;;;;;5059257;28;20033;-70
2023/08/12 04:54:33;;;;;;;13.35;10.52;;;22.30;92.40;;;;;;5059018;28;20031;-70
2023/08/12 04:56:59;;;;;;;11.98;9.20;;;22.30;92.40;;;;;;5059191;28;20029;-70
2023/08/12 04:59:25;;;;;;;12.27;9.55;;;22.40;92.30;;;;;;5061001;28;20036;-71
2023/08/12 05:01:50;;;;;;;10.77;9.10;;;22.40;92.30;;;;;;5067371;28;20107;-71
2023/08/12 05:04:16;;;;;;;10.75;7.53;;;22.40;92.20;;;;;;5065653;28;20025;-71
2023/08/12 05:06:42;;;;;;;13.32;10.85;;;22.50;92.10;;;;;;5071610;28;20247;-72
2023/08/12 05:09:08;;;;;;;12.63;9.80;;;22.50;92.10;;;;;;5067033;28;20124;-73
2023/08/12 05:11:33;;;;;;;12.57;10.02;;;22.50;92.10;;;;;;5061217;28;20455;-72
2023/08/12 05:13:59;;;;;;;15.00;12.32;;;22.50;92.20;;;;;;5070410;28;20122;-72
2023/08/12 05:16:25;;;;;;;13.23;10.27;;;22.50;92.40;;;;;;5070066;28;20483;-72
2023/08/12 05:18:51;;;;;;;9.90;8.70;;;22.50;92.40;;;;;;5066637;28;20108;-72
2023/08/12 05:21:16;;;;;;;12.73;10.85;;;22.50;92.20;;;;;;5062667;28;20025;-72
2023/08/12 05:23:42;;;;;;;13.70;10.50;;;22.60;92.20;;;;;;5067932;28;20035;-71
2023/08/12 05:26:07;;;;;;;14.10;11.52;;;22.50;92.10;;;;;;5062998;28;20033;-72
2023/08/12 05:28:33;;;;;;;12.15;9.07;;;22.50;92.30;;;;;;5069251;28;20357;-71
2023/08/12 05:30:58;;;;;;;12.93;10.35;;;22.50;92.30;;;;;;5067065;28;20483;-71
2023/08/12 05:33:24;;;;;;;12.70;11.00;;;22.40;92.40;;;;;;5066738;28;20029;-71
2023/08/12 05:35:50;;;;;;;10.65;8.18;;;22.30;92.60;;;;;;5065111;28;20021;-72
2023/08/12 05:38:16;;;;;;;13.05;10.35;;;22.30;92.60;;;;;;5072497;28;20025;-71
2023/08/12 05:40:42;;;;;;;13.18;11.52;;;22.30;92.70;;;;;;5064628;28;20365;-72
2023/08/12 05:43:08;;;;;;;11.48;9.10;;;22.30;92.90;;;;;;5068110;28;20039;-71
2023/08/12 05:45:33;;;;;;;15.32;11.65;;;22.30;92.80;;;;;;5069064;28;20025;-71
2023/08/12 05:47:59;;;;;;;18.77;14.50;;;22.30;92.90;;;;;;5066951;28;20465;-70
2023/08/12 05:50:25;;;;;;;11.93;9.82;;;22.30;93.00;;;;;;5063735;28;20432;-70
2023/08/12 05:52:50;;;;;;;10.27;8.77;;;22.20;93.00;;;;;;5056859;28;20079;-70
2023/08/12 05:55:16;;;;;;;14.57;12.02;;;22.20;93.00;;;;;;5067187;28;20490;-70
2023/08/12 05:57:41;;;;;;;11.05;8.20;;;22.20;93.00;;;;;;5068344;28;20032;-70
2023/08/12 06:00:08;;;;;;;13.68;10.23;;;22.20;93.10;;;;;;5063068;28;20506;-71
2023/08/12 06:02:33;;;;;;;10.02;7.80;;;22.20;93.20;;;;;;5065879;28;20033;-70
2023/08/12 06:04:59;;;;;;;12.82;10.60;;;22.10;93.20;;;;;;5065618;28;20519;-71
2023/08/12 06:07:24;;;;;;;10.70;8.20;;;22.10;93.40;;;;;;5072058;28;20035;-72
2023/08/12 06:09:50;;;;;;;13.35;11.13;;;22.10;93.30;;;;;;5060042;28;20021;-72
2023/08/12 06:12:16;;;;;;;9.85;7.68;;;22.10;93.40;;;;;;5062954;28;20105;-72
2023/08/12 06:14:42;;;;;;;8.15;6.88;;;22.00;93.40;;;;;;5059638;28;20459;-71
2023/08/12 06:17:08;;;;;;;10.88;7.65;;;22.00;93.40;;;;;;5062361;28;20331;-72
2023/08/12 06:19:33;;;;;;;9.18;6.43;;;22.00;93.40;;;;;;5070968;28;20032;-72
2023/08/12 06:21:59;;;;;;;8.80;6.28;;;22.00;93.40;;;;;;5058105;28;20040;-71
2023/08/12 06:24:25;;;;;;;8.85;6.60;;;22.00;93.30;;;;;;5056339;28;20078;-72
2023/08/12 06:26:50;;;;;;;8.35;5.93;;;21.90;93.30;;;;;;5057180;28;20438;-70
2023/08/12 06:29:16;;;;;;;6.80;5.25;;;21.90;93.30;;;;;;5052138;28;20438;-68
2023/08/12 06:31:42;;;;;;;8.85;5.78;;;21.90;93.30;;;;;;5054490;28;20381;-71
2023/08/12 06:34:07;;;;;;;8.13;6.60;;;21.90;93.20;;;;;;5069175;28;20078;-71
2023/08/12 06:36:33;;;;;;;5.90;5.15;;;21.90;93.20;;;;;;5064897;28;20372;-71
2023/08/12 06:38:59;;;;;;;8.82;5.88;;;21.90;93.20;;;;;;5064770;28;20424;-72
2023/08/12 06:41:24;;;;;;;6.25;4.60;;;21.90;93.20;;;;;;5063922;28;20374;-73
2023/08/12 06:43:50;;;;;;;5.85;3.90;;;21.80;93.20;;;;;;5067497;28;20020;-72
2023/08/12 06:46:16;;;;;;;5.53;3.80;;;21.80;93.20;;;;;;5057619;28;20017;-72
2023/08/12 06:48:41;;;;;;;6.68;4.95;;;21.80;93.20;;;;;;5067710;28;20228;-72
2023/08/12 06:51:10;;;;;;;5.43;3.63;;;21.70;93.10;;;;;;5055069;28;20029;-70
2023/08/12 06:53:37;;;;;;;6.18;3.72;;;21.70;93.10;;;;;;5071443;28;20410;-71
2023/08/12 06:56:03;;;;;;;4.82;3.47;;;21.70;93.10;;;;;;5062253;28;20016;-71
2023/08/12 06:58:28;;;;;;;6.38;3.70;;;21.70;93.00;;;;;;5068370;28;20108;-70
2023/08/12 07:00:54;;;;;;;4.80;3.70;;;21.70;93.00;;;;;;5057933;28;20984;-70
2023/08/12 07:03:20;;;;;;;4.22;3.05;;;21.80;92.90;;;;;;5069469;28;20036;-70
2023/08/12 07:05:45;;;;;;;5.25;2.90;;;21.80;92.80;;;;;;5069171;28;20024;-70
2023/08/12 07:08:11;;;;;;;3.55;2.90;;;21.80;92.80;;;;;;5069842;28;20407;-70
2023/08/12 07:10:43;;;;;;;4.60;3.35;;;21.80;92.80;;;;;;5070202;28;20063;-70
2023/08/12 07:13:08;;;;;;;;;;;21.90;92.70;;;;;;5060549;28;20056;-70
2023/08/12 07:15:34;;;;;;;4.55;3.42;;;21.90;92.60;;;;;;5050930;28;20394;-70
2023/08/12 07:18:00;;;;;;;6.38;3.55;;;21.90;92.70;;;;;;5063560;28;20040;-70
2023/08/12 07:20:25;;;;;;;5.28;3.78;;;21.80;92.90;;;;;;5050958;28;20029;-71
2023/08/12 07:22:52;;;;;;;6.05;3.60;;;21.90;92.60;;;;;;5064438;28;20047;-70
2023/08/12 07:25:17;;;;;;;4.43;3.00;;;21.90;92.70;;;;;;5050941;28;20059;-71
2023/08/12 07:27:43;;;;;;;5.43;3.78;;;21.90;92.60;;;;;;5065177;28;20486;-72
2023/08/12 07:30:10;;;;;;;3.05;2.67;;;21.90;92.60;;;;;;5056878;28;20099;-70
2023/08/12 07:32:39;;;;;;;4.00;2.78;;;22.00;92.60;;;;;;5050520;28;20059;-71
2023/08/12 07:35:08;;;;;;;5.22;3.30;;;22.00;92.50;;;;;;5064906;28;20041;-71
2023/08/12 07:37:34;;;;;;;7.00;3.75;;;22.00;92.40;;;;;;5062460;28;20389;-70
2023/08/12 07:39:59;;;;;;;6.68;4.50;;;22.00;92.50;;;;;;5057223;28;20055;-70
2023/08/12 07:42:25;;;;;;;4.18;3.45;;;22.00;92.60;;;;;;5060089;28;20031;-70
2023/08/12 07:44:50;;;;;;;6.10;4.10;;;22.00;92.60;;;;;;5061354;28;20390;-69
2023/08/12 07:47:16;;;;;;;6.22;3.80;;;22.00;92.60;;;;;;5058483;28;20033;-70
2023/08/12 07:49:43;;;;;;;5.22;4.10;;;22.00;92.80;;;;;;5059052;28;20088;-71
2023/08/12 07:52:08;;;;;;;5.70;3.83;;;21.90;93.00;;;;;;5059555;28;20124;-71
2023/08/12 07:54:34;;;;;;;5.13;3.78;;;21.90;93.00;;;;;;5059887;28;20423;-71
2023/08/12 07:56:59;;;;;;;4.15;3.58;;;21.90;93.00;;;;;;5060120;28;20024;-71
2023/08/12 07:59:25;;;;;;;5.82;4.10;;;21.90;93.10;;;;;;5059619;28;20111;-71
2023/08/12 08:01:51;;;;;;;6.13;4.13;;;21.80;93.20;;;;;;5059634;28;20031;-71
2023/08/12 08:04:17;;;;;;;5.10;4.10;;;21.70;93.40;;;;;;5055327;28;20021;-71
2023/08/12 08:06:43;;;;;;;7.38;4.28;;;21.80;93.50;;;;;;5059468;28;20031;-71
2023/08/12 08:09:09;;;;;;;4.63;3.35;;;21.70;93.60;;;;;;5057892;28;20020;-72
2023/08/12 08:11:35;;;;;;;4.57;3.58;;;21.60;93.70;;;;;;5061999;28;20024;-72
2023/08/12 08:14:00;;;;;;;5.13;3.40;;;21.60;93.90;;;;;;5055312;28;20398;-71
2023/08/12 08:16:26;;;;;;;4.93;3.17;;;21.60;94.00;;;;;;5060887;28;20074;-71
2023/08/12 08:18:52;;;;;;;6.20;2.83;;;21.60;94.10;;;;;;5061601;28;20361;-72
2023/08/12 08:21:17;;;;;;;3.63;2.90;;;21.60;94.10;;;;;;5057903;28;20039;-71
2023/08/12 08:23:43;;;;;;;3.10;2.50;;;21.60;94.20;;;;;;5059652;28;20024;-72
2023/08/12 08:26:09;;;;;;;2.80;2.10;;;21.60;94.20;;;;;;5059524;28;20067;-72
2023/08/12 08:28:35;;;;;;;2.80;2.03;;;21.60;94.20;;;;;;5060857;28;20016;-72
2023/08/12 08:31:00;;;;;;;2.33;1.80;;;21.50;94.20;;;;;;5059281;28;20029;-71
2023/08/12 08:33:26;;;;;;;2.97;2.33;;;21.60;94.30;;;;;;5057838;28;20475;-71
2023/08/12 08:35:53;;;;;;;2.97;2.30;;;21.60;94.40;;;;;;5065674;28;20021;-72
2023/08/12 08:38:19;;;;;;;3.17;2.63;;;21.60;94.40;;;;;;5065361;28;20025;-71
2023/08/12 08:40:44;;;;;;;3.45;2.28;;;21.70;94.40;;;;;;5063970;28;20410;-71
2023/08/12 08:43:11;;;;;;;2.95;2.30;;;21.70;94.40;;;;;;5062249;28;20387;-72
2023/08/12 08:45:37;;;;;;;3.10;2.33;;;21.70;94.50;;;;;;5065042;28;20017;-70
2023/08/12 08:48:06;;;;;;;3.45;2.53;;;21.80;94.40;;;;;;5063627;28;20052;-71
2023/08/12 08:50:32;;;;;;;2.20;1.95;;;21.70;94.60;;;;;;5065852;28;20020;-70
2023/08/12 08:52:59;;;;;;;2.53;2.20;;;21.80;94.60;;;;;;5059463;28;20419;-71
2023/08/12 08:55:25;;;;;;;2.63;2.00;;;21.90;94.40;;;;;;5065224;28;20021;-71
2023/08/12 08:57:52;;;;;;;3.10;2.58;;;21.80;94.50;;;;;;5065556;28;20025;-71
2023/08/12 09:00:18;;;;;;;2.30;2.10;;;21.90;94.50;;;;;;5064733;28;20391;-72
2023/08/12 09:02:50;;;;;;;2.47;2.28;;;21.80;94.60;;;;;;5059020;28;20044;-72
2023/08/12 09:05:16;;;;;;;2.78;2.20;;;21.80;94.70;;;;;;5060739;28;20108;-71
2023/08/12 09:07:46;;;;;;;4.30;3.00;;;21.80;94.80;;;;;;5062448;28;20111;-72
2023/08/12 09:10:12;;;;;;;2.50;2.30;;;21.80;94.90;;;;;;5063265;28;20028;-72
2023/08/12 09:12:38;;;;;;;2.58;2.20;;;21.70;95.10;;;;;;5062844;28;20029;-71
2023/08/12 09:15:06;;;;;;;2.50;2.30;;;21.80;95.10;;;;;;5064787;28;20043;-72
2023/08/12 09:17:32;;;;;;;2.40;2.20;;;21.80;95.10;;;;;;5064572;28;20029;-73
2023/08/12 09:19:58;;;;;;;2.78;1.67;;;21.90;95.10;;;;;;5066809;28;20119;-72
2023/08/12 09:22:25;;;;;;;2.08;1.85;;;22.00;95.00;;;;;;5069802;28;20378;-72
2023/08/12 09:24:57;;;;;;;1.85;1.75;;;22.00;94.80;;;;;;5062082;28;20058;-72
2023/08/12 09:27:24;;;;;;;1.80;1.70;;;22.10;94.70;;;;;;5070376;28;20020;-72
2023/08/12 09:29:50;;;;;;;2.03;1.75;;;22.10;94.70;;;;;;5067522;28;20035;-72
2023/08/12 09:32:19;;;;;;;1.20;1.10;;;22.20;94.60;;;;;;5069255;28;20029;-72
2023/08/12 09:34:51;;;;;;;1.27;1.15;;;22.20;94.50;;;;;;5072056;28;20395;-72
2023/08/12 09:37:17;;;;;;;0.80;0.80;;;22.20;94.40;;;;;;5066834;28;20471;-73
2023/08/12 09:39:43;;;;;;;1.75;1.00;;;22.30;94.30;;;;;;5067177;28;20108;-72
2023/08/12 09:42:10;;;;;;;0.93;0.90;;;22.30;94.10;;;;;;5064503;28;20035;-72
2023/08/12 09:44:36;;;;;;;0.73;0.73;;;22.40;93.90;;;;;;5067967;28;20025;-72
2023/08/12 09:47:03;;;;;;;1.60;0.73;;;22.40;93.80;;;;;;5062944;28;20055;-71
2023/08/12 09:49:28;;;;;;;1.00;0.70;;;22.50;93.80;;;;;;5062382;28;20025;-72
2023/08/12 09:51:55;;;;;;;0.80;0.60;;;22.60;93.60;;;;;;5067537;28;20062;-71
2023/08/12 09:54:21;;;;;;;0.60;0.50;;;22.80;93.40;;;;;;5063995;28;20036;-71
2023/08/12 09:56:49;;;;;;;0.70;0.70;;;23.00;93.10;;;;;;5063772;28;20021;-72
2023/08/12 09:59:23;;;;;;;0.60;0.50;;;23.10;92.80;;;;;;5069596;28;20108;-72
2023/08/12 10:01:50;;;;;;;0.50;0.50;;;23.20;92.70;;;;;;5070954;28;20553;-72
2023/08/12 10:04:18;;;;;;;0.52;0.52;;;23.20;92.60;;;;;;5063268;28;20063;-71
2023/08/12 10:06:44;;;;;;;0.70;0.70;;;23.30;92.30;;;;;;5065343;28;20115;-71
2023/08/12 10:09:11;;;;;;;0.60;0.60;;;23.20;92.20;;;;;;5067986;28;20013;-71
2023/08/12 10:11:37;;;;;;;0.60;0.60;;;23.20;92.30;;;;;;5062263;28;20479;-71
2023/08/12 10:14:04;;;;;;;0.60;0.60;;;23.20;92.30;;;;;;5069353;28;20074;-71
2023/08/12 10:16:30;;;;;;;1.23;0.85;;;23.30;92.30;;;;;;5060664;28;20032;-71
2023/08/12 10:18:57;;;;;;;0.60;0.60;;;23.40;92.20;;;;;;5065094;28;20044;-71
2023/08/12 10:21:25;;;;;;;0.70;0.70;;;23.60;92.00;;;;;;5070681;28;20053;-70
2023/08/12 10:23:51;;;;;;;0.70;0.70;;;23.70;91.70;;;;;;5063286;28;20021;-70
2023/08/12 10:26:17;;;;;;;1.38;0.73;;;23.90;91.40;;;;;;5060862;28;20108;-70
2023/08/12 10:28:43;;;;;;;0.70;0.70;;;23.90;91.00;;;;;;5065596;28;20048;-70
2023/08/12 10:31:11;;;;;;;0.70;0.70;;;23.80;90.80;;;;;;5060629;28;20033;-70
2023/08/12 10:33:38;;;;;;;0.63;0.63;;;23.70;90.60;;;;;;5060024;28;20027;-72
2023/08/12 10:36:05;;;;;;;0.77;0.60;;;23.60;90.70;;;;;;5061558;28;20024;-71
2023/08/12 10:38:33;;;;;;;1.25;0.90;;;23.60;90.70;;;;;;5065567;28;20029;-71
2023/08/12 10:41:35;;;;;;;0.70;0.70;;;23.60;90.40;;;;;;5061324;28;20561;-71
2023/08/12 10:44:04;;;;;;;1.80;1.40;;;23.50;90.40;;;;;;5040064;28;20401;-71
2023/08/12 10:46:34;;;;;;;1.55;1.40;;;23.40;90.40;;;;;;5055276;28;20056;-71
2023/08/12 10:49:04;;;;;;;1.40;1.20;;;23.20;90.00;;;;;;5052113;28;20021;-71
2023/08/12 10:51:54;;;;;;;3.05;1.27;;;23.10;90.10;;;;;;5058116;28;20429;-70
2023/08/12 10:54:30;;;;;;;1.98;1.08;;;23.10;90.20;;;;;;5059859;28;20120;-70
2023/08/12 10:57:05;;;;;;;2.75;1.10;;;23.10;90.10;;;;;;5049919;28;20056;-72
2023/08/12 10:59:45;;;;;;;1.80;1.42;;;23.30;89.90;;;;;;5056228;28;20111;-70
2023/08/12 11:02:25;;;;;;;2.13;1.13;;;23.40;89.20;;;;;;5066306;28;20103;-72
2023/08/12 11:05:04;;;;;;;2.35;1.23;;;23.50;88.70;;;;;;5058423;28;20526;-71
2023/08/12 11:07:45;;;;;;;1.73;1.00;;;23.60;88.60;;;;;;5061671;28;20021;-70
2023/08/12 11:10:21;;;;;;;3.95;1.38;;;23.80;87.70;;;;;;5056124;28;20017;-71
2023/08/12 11:12:52;;;;;;;2.00;1.00;;;23.80;86.30;;;;;;5064613;28;20063;-71
2023/08/12 11:15:36;;;;;;;2.47;1.38;;;24.00;85.90;;;;;;5062377;28;20507;-70
2023/08/12 11:18:10;;;;;;;2.15;1.05;;;24.00;84.60;;;;;;5061848;28;20020;-71
2023/08/12 11:20:36;;;;;;;2.65;1.10;;;24.20;83.70;;;;;;5061055;28;20032;-71
2023/08/12 11:23:04;;;;;;;2.28;1.13;;;24.20;82.80;;;;;;5060419;28;20028;-71
2023/08/12 11:25:31;;;;;;;1.38;0.80;;;24.30;81.80;;;;;;5062262;28;20082;-71
2023/08/12 11:27:57;;;;;;;1.63;0.90;;;24.40;81.30;;;;;;5061598;28;20030;-72
2023/08/12 11:30:23;;;;;;;3.25;1.05;;;24.50;80.80;;;;;;5058979;28;20043;-71
2023/08/12 11:32:51;;;;;;;2.08;1.05;;;24.60;80.20;;;;;;5065140;28;20032;-71
2023/08/12 11:35:17;;;;;;;2.55;1.02;;;24.60;79.20;;;;;;5063017;28;20021;-71
2023/08/12 11:37:45;;;;;;;2.95;1.20;;;24.70;78.40;;;;;;5062370;28;20048;-72
2023/08/12 11:40:14;;;;;;;1.60;1.00;;;24.80;78.00;;;;;;5059627;28;20332;-70
2023/08/12 11:42:42;;;;;;;3.65;1.27;;;24.90;77.00;;;;;;5064821;28;20048;-71
2023/08/12 11:45:08;;;;;;;2.65;1.20;;;25.00;76.20;;;;;;5058156;28;20017;-71
2023/08/12 11:47:35;;;;;;;1.45;1.10;;;25.00;75.10;;;;;;5061703;28;20062;-71
2023/08/12 11:50:08;;;;;;;2.17;1.10;;;25.20;75.00;;;;;;5053422;28;20027;-73
2023/08/12 11:52:35;;;;;;;3.55;1.20;;;25.30;73.80;;;;;;5063094;28;20038;-70
2023/08/12 11:55:01;;;;;;;3.03;1.35;;;25.50;73.20;;;;;;5065130;28;20020;-70
2023/08/12 11:57:28;;;;;;;3.40;1.35;;;25.70;72.50;;;;;;5063845;28;20113;-68
2023/08/12 11:59:59;;;;;;;7.03;1.40;;;25.80;71.80;;;;;;5063156;28;20053;-68
2023/08/12 12:02:25;;;;;;;4.75;1.60;;;25.70;70.90;;;;;;5066003;28;20054;-69
2023/08/12 12:04:52;;;;;;;3.42;1.48;;;25.80;71.10;;;;;;5067105;28;20032;-69
2023/08/12 12:07:23;;;;;;;2.53;1.20;;;25.90;70.50;;;;;;5063290;28;20020;-67
2023/08/12 12:09:53;;;;;;;8.85;1.42;;;25.90;69.60;;;;;;5062618;28;20036;-68
2023/08/12 12:12:24;;;;;;;4.18;1.65;;;25.90;69.40;;;;;;5066504;28;20051;-69
2023/08/12 12:14:56;;;;;;;;;;;25.80;69.20;;;;;;5060614;28;20070;-68
2023/08/12 12:17:24;;;;;;;5.05;1.38;;;25.80;69.10;;;;;;5061329;28;19908;-71
2023/08/12 12:19:57;;;;;;;4.97;1.88;;;25.80;68.60;;;;;;5060597;28;20510;-68
2023/08/12 12:22:30;;;;;;;4.50;1.50;;;25.90;68.50;;;;;;5062061;28;20626;-69
2023/08/12 12:25:00;;;;;;;3.15;1.38;;;25.90;67.70;;;;;;5066892;28;20390;-67
2023/08/12 12:27:26;;;;;;;4.18;1.20;;;26.00;67.60;;;;;;5063091;28;20028;-68
2023/08/12 12:29:53;;;;;;;4.20;1.67;;;26.10;67.30;;;;;;5065249;28;20033;-68
2023/08/12 12:32:19;;;;;;;2.60;1.20;;;26.30;66.80;;;;;;5065468;28;20037;-67
2023/08/12 12:34:46;;;;;;;3.58;1.48;;;26.50;66.80;;;;;;5064486;28;20027;-67
2023/08/12 12:37:12;;;;;;;4.18;1.40;;;26.40;66.00;;;;;;5063770;28;20406;-69
2023/08/12 12:39:38;;;;;;;3.15;1.40;;;26.30;64.40;;;;;;5065375;28;20024;-68
2023/08/12 12:42:04;;;;;;;3.10;1.42;;;26.30;64.50;;;;;;5064151;28;20033;-69